Time;durP1;ratioP1;P1;durP2;ratioP2;P2;SDS_P1;SDS_P2;PMS_P1;PMS_P2;Temp;Humidity;BMP_temperature;BMP_pressure;BME280_temperature;BME280_humidity;BME280_pressure;Samples;Min_cycle;Max_cycle;Signal;HPM_P1;HPM_P2
2022/04/21 00:01:23;;;;;;;4.53;2.97;;;;;;;6.95;87.13;101691.22;5054014;28;20166;-68
2022/04/21 00:03:48;;;;;;;4.50;3.10;;;;;;;6.95;87.10;101694.72;5054068;28;20033;-68
2022/04/21 00:06:14;;;;;;;6.07;3.10;;;;;;;6.93;86.45;101692.13;5053918;28;20159;-68
2022/04/21 00:08:39;;;;;;;4.90;2.85;;;;;;;6.92;86.77;101682.47;5051695;28;20040;-68
2022/04/21 00:11:05;;;;;;;5.63;2.95;;;;;;;6.91;87.33;101683.38;5052295;28;20036;-67
2022/04/21 00:13:31;;;;;;;3.60;2.90;;;;;;;6.88;87.49;101683.44;5053142;28;20885;-67
2022/04/21 00:15:57;;;;;;;7.90;3.53;;;;;;;6.86;86.49;101682.56;5053220;28;20122;-68
2022/04/21 00:18:22;;;;;;;6.00;3.65;;;;;;;6.83;86.66;101677.38;5053468;28;20111;-67
2022/04/21 00:20:48;;;;;;;4.32;3.08;;;;;;;6.83;86.42;101673.88;5053550;28;20096;-68
2022/04/21 00:23:29;;;;;;;5.05;3.30;;;;;;;6.81;86.61;101663.34;5051942;28;20044;-67
2022/04/21 00:26:00;;;;;;;6.60;3.65;;;;;;;6.81;87.39;101668.63;5048459;28;20043;-67
2022/04/21 00:28:29;;;;;;;5.00;3.67;;;;;;;6.82;86.95;101666.88;5046859;28;20029;-67
2022/04/21 00:30:55;;;;;;;6.82;3.83;;;;;;;6.80;87.11;101664.25;5058147;28;20028;-67
2022/04/21 00:33:23;;;;;;;6.93;3.60;;;;;;;6.78;86.98;101661.66;5072271;28;20074;-67
2022/04/21 00:35:48;;;;;;;7.85;4.43;;;;;;;6.78;87.77;101666.94;5057649;28;20114;-68
2022/04/21 00:38:14;;;;;;;6.75;4.07;;;;;;;6.76;87.69;101659.94;5047315;28;20743;-68
2022/04/21 00:40:39;;;;;;;6.22;3.83;;;;;;;6.73;88.15;101666.13;5058700;28;20032;-67
2022/04/21 00:43:05;;;;;;;6.85;3.47;;;;;;;6.73;88.41;101662.63;5058230;28;20036;-67
2022/04/21 00:45:32;;;;;;;7.97;4.00;;;;;;;6.71;87.96;101669.69;5074074;28;20089;-67
2022/04/21 00:47:58;;;;;;;6.88;3.97;;;;;;;6.66;88.46;101657.44;5057290;28;20391;-67
2022/04/21 00:50:28;;;;;;;6.47;3.83;;;;;;;6.64;88.36;101667.13;5058396;28;20060;-67
2022/04/21 00:52:54;;;;;;;8.55;4.43;;;;;;;6.61;88.79;101664.56;5045553;28;20044;-67
2022/04/21 00:55:21;;;;;;;7.55;4.47;;;;;;;6.59;88.54;101654.97;5063273;28;20029;-67
2022/04/21 00:57:48;;;;;;;7.32;4.43;;;;;;;6.57;88.64;101668.13;5058580;28;20149;-68
2022/04/21 01:00:14;;;;;;;7.20;4.20;;;;;;;6.53;88.42;101655.91;5062493;28;20291;-68
2022/04/21 01:02:46;;;;;;;7.30;4.30;;;;;;;6.51;88.00;101663.84;5053822;28;20044;-67
2022/04/21 01:05:16;;;;;;;7.85;4.78;;;;;;;6.46;89.26;101649.00;5057129;28;20151;-67
2022/04/21 01:07:42;;;;;;;7.28;4.13;;;;;;;6.43;89.00;101654.31;5056204;28;20028;-68
2022/04/21 01:10:09;;;;;;;10.00;4.70;;;;;;;6.40;88.90;101655.22;5059102;28;20486;-68
2022/04/21 01:12:35;;;;;;;9.48;4.68;;;;;;;6.36;89.17;101654.41;5058100;28;20557;-67
2022/04/21 01:15:00;;;;;;;9.35;4.80;;;;;;;6.34;89.34;101650.06;5058865;28;20047;-68
2022/04/21 01:17:36;;;;;;;7.75;4.30;;;;;;;6.31;90.58;101648.34;5056254;28;20032;-67
2022/04/21 01:20:04;;;;;;;7.78;4.93;;;;;;;6.29;89.34;101652.75;5042902;28;20492;-68
2022/04/21 01:22:29;;;;;;;10.13;4.85;;;;;;;6.29;89.77;101652.75;5056431;28;20032;-67
2022/04/21 01:24:56;;;;;;;7.05;4.40;;;;;;;6.28;89.03;101651.03;5056201;28;21660;-68
2022/04/21 01:27:23;;;;;;;7.75;4.70;;;;;;;6.28;89.86;101640.50;5057118;28;20358;-68
2022/04/21 01:29:50;;;;;;;8.25;4.82;;;;;;;6.27;89.83;101644.03;5056399;28;20035;-66
2022/04/21 01:32:15;;;;;;;9.75;4.90;;;;;;;6.25;89.79;101643.16;5056681;28;21468;-68
2022/04/21 01:34:41;;;;;;;9.13;5.05;;;;;;;6.22;89.59;101632.72;5057143;28;20116;-68
2022/04/21 01:42:36;;;;;;;9.55;5.20;;;;;;;6.16;90.43;101632.78;5056525;28;20104;-68
2022/04/21 01:45:01;;;;;;;8.02;4.72;;;;;;;6.14;91.04;101634.59;5056696;28;20419;-67
2022/04/21 01:47:27;;;;;;;8.90;5.22;;;;;;;6.13;90.60;101628.44;5056488;28;20051;-67
2022/04/21 01:49:52;;;;;;;10.68;5.50;;;;;;;6.13;91.15;101631.06;5056452;28;20032;-67
2022/04/21 01:52:18;;;;;;;12.52;6.18;;;;;;;6.11;91.22;101625.81;5053623;28;20049;-66
2022/04/21 01:54:44;;;;;;;9.90;5.93;;;;;;;6.10;91.93;101616.22;5056347;28;20036;-68
2022/04/21 01:57:10;;;;;;;10.05;5.20;;;;;;;6.08;92.12;101617.13;5056779;28;20115;-66
2022/04/21 01:59:35;;;;;;;10.43;5.88;;;;;;;6.08;91.63;101619.75;5055692;28;20039;-66
2022/04/21 02:02:01;;;;;;;11.40;5.70;;;;;;;6.07;91.92;101615.38;5053805;28;20040;-67
2022/04/21 02:04:26;;;;;;;10.30;5.43;;;;;;;6.06;92.55;101617.13;5055291;28;20028;-67
2022/04/21 02:06:52;;;;;;;10.50;5.88;;;;;;;6.05;91.73;101617.16;5045642;28;20032;-67
2022/04/21 02:09:18;;;;;;;10.90;5.80;;;;;;;6.02;91.93;101622.41;5051794;28;20095;-67
2022/04/21 02:11:43;;;;;;;10.45;6.30;;;;;;;6.00;92.36;101617.22;5055095;28;20039;-68
2022/04/21 02:14:09;;;;;;;11.50;6.20;;;;;;;6.01;92.27;101615.44;5042547;28;20032;-67
2022/04/21 02:16:35;;;;;;;12.05;6.40;;;;;;;6.00;92.32;101614.59;5054783;28;20028;-67
2022/04/21 02:19:00;;;;;;;10.13;5.97;;;;;;;5.99;92.66;101618.06;5053239;28;20105;-68
2022/04/21 02:21:26;;;;;;;12.70;6.40;;;;;;;6.01;92.81;101626.81;5053650;28;20117;-67
2022/04/21 02:23:51;;;;;;;9.65;5.88;;;;;;;6.02;93.65;101618.09;5054791;28;20547;-67
2022/04/21 02:26:17;;;;;;;13.23;6.78;;;;;;;6.02;93.22;101612.81;5053086;28;21394;-67
2022/04/21 02:28:42;;;;;;;12.23;6.63;;;;;;;6.01;93.80;101616.31;5054086;28;20044;-68
2022/04/21 02:31:08;;;;;;;13.13;6.45;;;;;;;5.96;92.92;101618.13;5053676;28;20079;-68
2022/04/21 02:33:33;;;;;;;11.82;5.93;;;;;;;5.92;93.09;101612.03;5052725;28;20087;-68
2022/04/21 02:35:59;;;;;;;10.27;6.10;;;;;;;5.85;93.01;101605.13;5052492;28;20055;-67
2022/04/21 02:38:24;;;;;;;10.70;6.10;;;;;;;5.78;93.55;101609.59;5051475;28;21468;-66
2022/04/21 02:40:50;;;;;;;12.43;6.53;;;;;;;5.75;93.34;101600.88;5053117;28;20038;-68
2022/04/21 02:43:15;;;;;;;13.00;6.93;;;;;;;5.73;93.76;101616.69;5053239;28;20037;-68
2022/04/21 02:45:42;;;;;;;13.15;7.20;;;;;;;5.76;95.10;101606.13;5052254;28;20036;-68
2022/04/21 02:48:08;;;;;;;15.32;7.30;;;;;;;5.81;94.78;101616.56;5053345;28;21626;-68
2022/04/21 02:50:34;;;;;;;11.13;7.15;;;;;;;5.80;95.16;101612.19;5032962;28;20032;-68
2022/04/21 02:52:59;;;;;;;11.00;6.60;;;;;;;5.80;94.34;101614.84;5052194;28;20553;-68
2022/04/21 02:58:09;;;;;;;12.75;6.95;;;;;;;5.83;94.95;101615.66;5064374;28;20033;-68
2022/04/21 03:00:35;;;;;;;12.80;7.30;;;;;;;5.85;96.15;101607.75;5051705;28;20047;-68
2022/04/21 03:03:00;;;;;;;14.48;7.63;;;;;;;5.85;96.09;101606.00;5037020;28;20063;-68
2022/04/21 03:05:26;;;;;;;13.98;7.93;;;;;;;5.86;96.09;101609.50;5052357;28;20067;-68
2022/04/21 03:07:52;;;;;;;15.00;8.13;;;;;;;5.87;95.94;101611.22;5049807;28;20040;-67
2022/04/21 03:10:17;;;;;;;15.40;7.53;;;;;;;5.87;95.86;101608.59;5053934;28;20673;-68
2022/04/21 03:12:43;;;;;;;14.15;7.25;;;;;;;5.88;96.82;101614.75;5052968;28;20042;-68
2022/04/21 03:15:11;;;;;;;16.95;7.63;;;;;;;5.88;95.55;101602.44;5051447;28;20371;-67
2022/04/21 03:17:36;;;;;;;16.75;7.78;;;;;;;5.89;94.40;101605.97;5056343;28;20033;-67
2022/04/21 03:20:03;;;;;;;15.23;7.57;;;;;;;5.88;94.88;101599.81;5057998;28;20514;-68
2022/04/21 03:25:15;;;;;;;13.68;7.13;;;;;;;5.82;94.93;101600.78;5054572;28;20028;-68
2022/04/21 03:27:43;;;;;;;15.18;7.35;;;;;;;5.78;95.89;101604.34;5051151;28;20043;-68
2022/04/21 03:30:09;;;;;;;12.95;6.78;;;;;;;5.75;95.36;101604.38;5067848;28;20032;-68
2022/04/21 03:32:37;;;;;;;13.90;7.25;;;;;;;5.71;95.31;101602.69;5040117;28;20399;-68
2022/04/21 03:35:03;;;;;;;12.73;7.15;;;;;;;5.70;95.12;101603.56;5052340;28;20028;-68
2022/04/21 03:37:29;;;;;;;12.27;6.88;;;;;;;5.71;95.12;101602.69;5050683;28;20369;-68
2022/04/21 03:39:55;;;;;;;13.65;7.13;;;;;;;5.69;95.70;101599.22;5053264;28;20025;-68
2022/04/21 03:42:26;;;;;;;14.98;7.45;;;;;;;5.68;96.25;101603.56;5051116;28;20526;-67
2022/04/21 03:44:52;;;;;;;16.25;7.35;;;;;;;5.67;96.44;101611.50;5051574;28;20025;-66
2022/04/21 03:47:18;;;;;;;13.00;7.15;;;;;;;5.66;96.04;101615.03;5047110;28;21003;-69
2022/04/21 03:49:44;;;;;;;13.45;7.32;;;;;;;5.61;96.42;101611.56;5042316;28;20773;-68
2022/04/21 03:52:12;;;;;;;16.35;7.53;;;;;;;5.58;96.53;101609.84;5054273;28;20040;-68
2022/04/21 03:54:38;;;;;;;12.38;6.95;;;;;;;5.57;97.09;101616.84;5054486;28;21478;-67
2022/04/21 03:57:05;;;;;;;14.27;6.95;;;;;;;5.56;97.58;101616.91;5053463;28;20039;-67
2022/04/21 03:59:31;;;;;;;16.08;7.97;;;;;;;5.55;97.05;101620.38;5053976;28;20269;-68
2022/04/21 04:02:02;;;;;;;14.60;7.43;;;;;;;5.54;96.90;101618.66;5053087;28;20036;-67
2022/04/21 04:04:31;;;;;;;15.20;7.10;;;;;;;5.50;96.54;101620.44;5053396;28;20068;-67
2022/04/21 04:12:33;;;;;;;12.13;6.85;;;;;;;5.50;96.74;101630.09;5044105;28;20031;-68
2022/04/21 04:14:59;;;;;;;11.65;7.35;;;;;;;5.49;96.65;101623.97;5052719;28;20025;-68
2022/04/21 04:17:25;;;;;;;14.00;6.90;;;;;;;5.48;95.88;101629.22;5069660;28;20122;-68
2022/04/21 04:19:51;;;;;;;12.35;6.72;;;;;;;5.48;96.22;101629.22;5041981;28;20515;-68
2022/04/21 04:22:16;;;;;;;14.05;7.15;;;;;;;5.46;96.22;101624.00;5053624;28;20038;-68
2022/04/21 04:24:44;;;;;;;13.57;7.68;;;;;;;5.47;96.12;101631.00;5054187;28;20475;-68
2022/04/21 04:27:09;;;;;;;12.68;7.45;;;;;;;5.46;95.76;101631.00;5041821;28;21326;-68
2022/04/21 04:29:35;;;;;;;14.10;7.10;;;;;;;5.44;96.11;101621.41;5055068;28;20033;-68
2022/04/21 04:32:01;;;;;;;12.68;7.10;;;;;;;5.43;96.17;101616.16;5041192;28;20032;-68
2022/04/21 04:34:27;;;;;;;14.68;7.60;;;;;;;5.43;96.44;101624.03;5042208;28;20451;-66
2022/04/21 04:36:52;;;;;;;13.48;6.68;;;;;;;5.42;96.27;101622.28;5040116;28;20038;-68
2022/04/21 04:39:18;;;;;;;12.52;6.72;;;;;;;5.40;96.04;101621.47;5054552;28;20528;-68
2022/04/21 04:44:28;;;;;;;11.88;6.88;;;;;;;5.38;96.00;101621.47;5054289;28;20040;-67
2022/04/21 04:46:54;;;;;;;14.48;7.25;;;;;;;5.38;95.65;101631.09;5054621;28;20119;-67
2022/04/21 04:49:20;;;;;;;12.38;7.40;;;;;;;5.39;96.31;101623.19;5043328;28;20040;-67
2022/04/21 04:51:46;;;;;;;12.27;6.97;;;;;;;5.38;96.25;101628.47;5040252;28;20047;-68
2022/04/21 04:54:13;;;;;;;14.32;6.47;;;;;;;5.36;96.38;101622.38;5037325;28;20134;-66
2022/04/21 04:56:40;;;;;;;11.90;6.85;;;;;;;5.35;96.09;101626.75;5051896;28;20495;-67
2022/04/21 04:59:05;;;;;;;12.38;7.18;;;;;;;5.36;96.48;101632.88;5052034;28;20032;-67
2022/04/21 05:01:33;;;;;;;12.48;6.57;;;;;;;5.35;95.51;101631.13;5055480;28;20028;-68
2022/04/21 05:04:08;;;;;;;11.60;6.63;;;;;;;5.34;95.94;101624.16;5052894;28;20040;-68
2022/04/21 05:06:37;;;;;;;16.25;6.60;;;;;;;5.34;95.85;101635.50;5054020;28;21564;-68
2022/04/21 05:09:05;;;;;;;13.65;6.40;;;;;;;5.35;96.17;101631.13;5033297;28;20409;-68
2022/04/21 05:11:31;;;;;;;14.65;7.18;;;;;;;5.37;96.43;101632.84;5042650;28;20090;-68
2022/04/21 05:13:57;;;;;;;16.00;6.70;;;;;;;5.43;96.54;101637.16;5043964;28;20129;-68
2022/04/21 05:16:22;;;;;;;12.63;6.70;;;;;;;5.45;96.40;101632.75;5054847;28;20554;-68
2022/04/21 05:18:49;;;;;;;12.02;6.47;;;;;;;5.47;95.55;101636.25;5037919;28;20035;-68
2022/04/21 05:21:16;;;;;;;11.45;6.55;;;;;;;5.52;96.44;101641.44;5054335;28;20029;-68
2022/04/21 05:23:44;;;;;;;11.40;6.50;;;;;;;5.57;96.55;101643.13;5047503;28;20036;-68
2022/04/21 05:26:10;;;;;;;13.43;7.20;;;;;;;5.62;96.77;101635.19;5057201;28;20043;-68
2022/04/21 05:28:36;;;;;;;10.55;6.43;;;;;;;5.68;97.10;101629.84;5057423;28;20060;-68
2022/04/21 05:31:02;;;;;;;11.35;6.32;;;;;;;5.73;97.01;101629.81;5056647;28;20519;-68
2022/04/21 05:33:29;;;;;;;10.63;6.30;;;;;;;5.77;96.74;101628.88;5056451;28;20097;-68
2022/04/21 05:35:56;;;;;;;12.80;6.50;;;;;;;5.85;96.65;101644.56;5057542;28;20542;-68
2022/04/21 05:38:22;;;;;;;12.63;6.20;;;;;;;5.92;95.98;101635.69;5055434;28;20035;-68
2022/04/21 05:40:49;;;;;;;11.07;6.20;;;;;;;5.99;95.53;101641.72;5056677;28;20036;-68
2022/04/21 05:43:20;;;;;;;10.73;5.97;;;;;;;6.06;95.77;101637.31;5056263;28;20390;-68
2022/04/21 05:45:46;;;;;;;12.07;6.00;;;;;;;6.14;95.26;101635.44;5056012;28;20479;-68
2022/04/21 05:48:13;;;;;;;11.77;5.78;;;;;;;6.22;94.62;101630.06;5056643;28;20039;-68
2022/04/21 05:50:39;;;;;;;10.98;5.85;;;;;;;6.30;94.77;101633.47;5054641;28;20456;-68
2022/04/21 05:53:06;;;;;;;7.57;5.32;;;;;;;6.38;94.93;101634.19;5055309;28;20051;-68
2022/04/21 05:55:35;;;;;;;12.30;5.47;;;;;;;6.48;95.04;101634.09;5054460;28;20036;-68
2022/04/21 05:58:01;;;;;;;8.15;5.47;;;;;;;6.56;94.02;101633.94;5054130;28;20028;-68
2022/04/21 06:00:26;;;;;;;11.68;5.15;;;;;;;6.63;94.13;101625.06;5053017;28;20552;-69
2022/04/21 06:02:52;;;;;;;9.27;5.22;;;;;;;6.72;93.42;101621.41;5052069;28;20036;-69
2022/04/21 06:05:17;;;;;;;7.07;5.00;;;;;;;6.80;92.99;101627.41;5055978;28;20109;-69
2022/04/21 06:07:43;;;;;;;8.38;4.93;;;;;;;6.89;92.86;101616.72;5054132;28;20090;-69
2022/04/21 06:10:09;;;;;;;9.27;5.10;;;;;;;7.01;92.64;101620.03;5055961;28;20040;-68
2022/04/21 06:12:36;;;;;;;9.68;4.20;;;;;;;7.11;92.28;101620.72;5055490;28;21428;-68
2022/04/21 06:15:02;;;;;;;7.35;4.28;;;;;;;7.24;91.74;101621.38;5053677;28;20300;-68
2022/04/21 06:17:28;;;;;;;11.00;4.93;;;;;;;7.43;91.39;101622.75;5056415;28;21495;-68
2022/04/21 06:19:53;;;;;;;5.82;4.38;;;;;;;7.62;90.92;101625.00;5054475;28;20119;-69
2022/04/21 06:22:19;;;;;;;8.48;4.25;;;;;;;7.80;89.93;101622.91;5054135;28;21517;-69
2022/04/21 06:24:44;;;;;;;8.13;4.70;;;;;;;7.95;89.39;101622.56;5055517;28;20771;-69
2022/04/21 06:27:10;;;;;;;8.52;4.88;;;;;;;8.13;89.17;101629.19;5053919;28;20032;-69
2022/04/21 06:29:36;;;;;;;6.15;4.68;;;;;;;8.32;88.71;101623.50;5055098;28;20149;-68
2022/04/21 06:32:01;;;;;;;6.88;4.28;;;;;;;8.52;87.87;101625.69;5052611;28;20025;-68
2022/04/21 06:34:27;;;;;;;5.82;3.97;;;;;;;8.69;87.34;101627.03;5054250;28;20427;-69
2022/04/21 06:36:52;;;;;;;7.03;4.25;;;;;;;8.87;86.53;101624.84;5053005;28;20523;-69
2022/04/21 06:39:18;;;;;;;7.60;4.45;;;;;;;9.00;85.91;101623.63;5053378;28;20034;-68
2022/04/21 06:41:43;;;;;;;6.25;3.75;;;;;;;9.15;83.69;101622.34;5054311;28;20024;-68
2022/04/21 06:49:37;;;;;;;5.70;4.10;;;;;;;9.51;81.74;101622.25;5060845;28;20028;-68
2022/04/21 06:52:04;;;;;;;6.55;4.13;;;;;;;9.65;82.84;101631.56;5055323;28;20445;-68
2022/04/21 06:54:29;;;;;;;8.40;3.78;;;;;;;9.78;81.84;101632.06;5053720;28;20044;-68
2022/04/21 06:56:55;;;;;;;6.60;3.88;;;;;;;9.92;81.98;101631.66;5052920;28;20032;-68
2022/04/21 06:59:20;;;;;;;5.50;3.63;;;;;;;10.04;81.70;101630.41;5054165;28;20032;-68
2022/04/21 07:01:46;;;;;;;5.72;3.17;;;;;;;10.11;80.48;101626.66;5053487;28;20173;-68
2022/04/21 07:04:13;;;;;;;5.32;3.63;;;;;;;10.19;80.09;101629.91;5051055;28;20028;-68
2022/04/21 07:06:39;;;;;;;8.23;3.47;;;;;;;10.30;79.08;101632.22;5055871;28;20051;-69
2022/04/21 07:09:04;;;;;;;8.95;3.30;;;;;;;10.36;78.68;101633.84;5051074;28;20422;-68
2022/04/21 07:11:30;;;;;;;5.20;3.08;;;;;;;10.42;77.48;101638.94;5052983;28;20731;-68
2022/04/21 07:13:56;;;;;;;5.13;3.10;;;;;;;10.55;78.61;101630.59;5052129;28;21375;-68
2022/04/21 07:16:22;;;;;;;5.47;3.40;;;;;;;10.62;78.11;101626.84;5042916;28;20889;-69
2022/04/21 07:18:47;;;;;;;4.68;3.13;;;;;;;10.62;76.52;101634.78;5053702;28;20364;-68
2022/04/21 07:21:13;;;;;;;5.43;3.25;;;;;;;10.61;75.95;101634.84;5051468;28;20561;-69
2022/04/21 07:23:39;;;;;;;4.25;3.08;;;;;;;10.62;75.78;101640.06;5053983;28;20119;-69
2022/04/21 07:26:05;;;;;;;4.10;3.13;;;;;;;10.63;74.58;101633.88;5053052;28;20501;-69
2022/04/21 07:28:32;;;;;;;3.58;2.92;;;;;;;10.65;75.15;101645.28;5051909;28;20040;-69
2022/04/21 07:30:58;;;;;;;7.15;2.72;;;;;;;10.67;75.72;101639.94;5051642;28;20482;-69
2022/04/21 07:33:23;;;;;;;4.55;2.80;;;;;;;10.76;75.47;101634.31;5050620;28;20044;-69
2022/04/21 07:35:49;;;;;;;3.35;2.60;;;;;;;10.77;73.90;101640.47;5053497;28;20033;-69
2022/04/21 07:38:14;;;;;;;3.75;2.60;;;;;;;10.77;73.61;101645.78;5053770;28;20036;-69
2022/04/21 07:40:41;;;;;;;7.00;2.80;;;;;;;10.82;73.75;101636.78;5052390;28;20455;-70
2022/04/21 07:43:09;;;;;;;5.13;2.65;;;;;;;10.84;72.71;101637.56;5053603;28;20441;-69
2022/04/21 07:45:38;;;;;;;4.43;2.78;;;;;;;10.92;73.91;101645.28;5052363;28;20097;-69
2022/04/21 07:48:04;;;;;;;4.45;3.30;;;;;;;11.02;73.71;101644.94;5051319;28;20039;-70
2022/04/21 07:50:30;;;;;;;3.80;2.90;;;;;;;11.20;73.50;101635.47;5047272;28;20032;-70
2022/04/21 07:53:14;;;;;;;5.18;2.75;;;;;;;11.37;73.62;101642.84;5041532;28;21766;-70
2022/04/21 07:55:41;;;;;;;4.93;2.47;;;;;;;11.54;70.86;101639.56;5053612;28;20517;-69
2022/04/21 07:58:07;;;;;;;5.03;2.60;;;;;;;11.59;69.79;101634.13;5052537;28;20243;-69
2022/04/21 08:00:36;;;;;;;2.58;2.25;;;;;;;11.66;70.27;101632.97;5053071;28;20032;-69
2022/04/21 08:03:03;;;;;;;3.63;2.30;;;;;;;11.84;70.96;101628.75;5052486;28;20387;-69
2022/04/21 08:05:29;;;;;;;3.22;2.33;;;;;;;12.01;69.98;101635.19;5054279;28;20036;-69
2022/04/21 08:07:55;;;;;;;3.67;2.67;;;;;;;12.11;69.43;101638.38;5050669;28;20033;-69
2022/04/21 08:10:22;;;;;;;3.25;2.58;;;;;;;12.26;70.46;101639.56;5052798;28;20029;-69
2022/04/21 08:12:50;;;;;;;3.15;2.15;;;;;;;12.43;69.21;101644.19;5053033;28;20028;-69
2022/04/21 08:15:29;;;;;;;3.60;2.15;;;;;;;12.52;67.13;101645.63;5051621;28;20178;-69
2022/04/21 08:17:57;;;;;;;2.65;2.00;;;;;;;12.63;67.87;101644.25;5051872;28;20020;-69
2022/04/21 08:20:23;;;;;;;3.55;2.45;;;;;;;12.73;66.79;101643.84;5052143;28;20071;-69
2022/04/21 08:22:49;;;;;;;2.40;2.20;;;;;;;12.80;64.55;101645.31;5054672;28;20039;-67
2022/04/21 08:33:27;;;;;;;2.90;2.00;;;;;;;13.39;64.23;101639.25;5049269;28;20101;-68
2022/04/21 08:35:58;;;;;;;2.47;1.83;;;;;;;13.46;62.11;101642.56;5051572;28;20036;-68
2022/04/21 08:38:28;;;;;;;2.50;1.80;;;;;;;13.51;63.54;101640.56;5027981;28;20080;-69
2022/04/21 08:40:58;;;;;;;1.75;1.60;;;;;;;13.56;61.68;101638.53;5053850;28;20097;-69
2022/04/21 08:43:29;;;;;;;2.28;1.98;;;;;;;13.67;62.85;101652.22;5052236;28;20039;-69
2022/04/21 08:45:55;;;;;;;3.03;2.10;;;;;;;13.75;62.08;101641.22;5043906;28;20037;-68
2022/04/21 08:48:22;;;;;;;1.90;1.65;;;;;;;13.80;61.12;101631.25;5055120;28;20037;-68
2022/04/21 08:50:48;;;;;;;1.95;1.77;;;;;;;13.87;61.70;101641.56;5056979;28;20097;-69
2022/04/21 08:53:16;;;;;;;2.10;1.70;;;;;;;13.95;62.25;101639.44;5055475;28;20056;-68
2022/04/21 08:55:44;;;;;;;3.00;2.08;;;;;;;14.02;62.20;101635.56;5052285;28;20032;-69
2022/04/21 08:58:11;;;;;;;2.25;1.85;;;;;;;14.15;62.12;101645.63;5056297;28;20067;-68
2022/04/21 09:00:37;;;;;;;2.20;1.90;;;;;;;14.26;62.50;101637.97;5069268;28;20040;-66
2022/04/21 09:03:06;;;;;;;2.45;1.80;;;;;;;14.29;59.79;101642.28;5056573;28;20602;-69
2022/04/21 09:05:32;;;;;;;3.15;1.85;;;;;;;14.28;58.91;101640.56;5054863;28;20040;-67
2022/04/21 09:07:58;;;;;;;2.92;2.08;;;;;;;14.19;59.41;101642.72;5035880;28;20077;-67
2022/04/21 09:10:25;;;;;;;2.15;1.95;;;;;;;14.26;60.92;101643.28;5045222;28;20118;-67
2022/04/21 09:12:55;;;;;;;7.70;2.13;;;;;;;14.30;59.30;101634.22;5043486;28;20471;-67
2022/04/21 09:15:23;;;;;;;4.47;1.98;;;;;;;14.32;58.26;101635.00;5045539;28;20045;-67
2022/04/21 09:17:53;;;;;;;2.60;1.90;;;;;;;14.34;57.51;101630.44;5056469;28;20236;-67
2022/04/21 09:20:24;;;;;;;2.85;1.92;;;;;;;14.44;59.22;101628.19;5045114;28;20050;-67
2022/04/21 09:22:56;;;;;;;1.92;1.73;;;;;;;14.57;59.86;101624.94;5055888;28;20390;-67
2022/04/21 09:25:25;;;;;;;3.70;1.77;;;;;;;14.67;58.60;101621.72;5045184;28;20032;-67
2022/04/21 09:27:52;;;;;;;2.92;1.88;;;;;;;14.77;60.75;101622.16;5024447;28;20097;-67
2022/04/21 09:30:18;;;;;;;3.28;1.50;;;;;;;14.92;60.22;101622.31;5070097;28;20029;-67
2022/04/21 09:32:59;;;;;;;2.03;1.50;;;;;;;15.01;57.07;101621.84;5054522;28;20047;-67
2022/04/21 09:35:27;;;;;;;2.95;1.70;;;;;;;15.10;59.03;101612.50;5043312;28;20191;-68
2022/04/21 09:37:56;;;;;;;1.98;1.70;;;;;;;15.14;58.40;101607.88;5059972;28;20048;-67
2022/04/21 09:40:27;;;;;;;1.70;1.60;;;;;;;15.17;58.94;101613.91;5054000;28;20040;-67
2022/04/21 09:42:55;;;;;;;5.22;1.95;;;;;;;15.19;58.24;101606.69;5053458;28;20046;-67
2022/04/21 09:48:26;;;;;;;2.17;1.42;;;;;;;15.22;57.90;101600.31;5055079;28;20035;-67
2022/04/21 09:50:56;;;;;;;4.20;2.97;;;;;;;15.27;57.77;101614.28;5043576;28;21500;-68
2022/04/21 09:53:23;;;;;;;1.60;1.50;;;;;;;15.26;57.01;101607.19;5067765;28;20063;-67
2022/04/21 09:55:51;;;;;;;1.50;1.40;;;;;;;15.17;56.67;101608.56;5044919;28;20056;-67
2022/04/21 09:58:17;;;;;;;2.72;1.58;;;;;;;15.16;56.73;101601.50;5052814;28;20032;-69
2022/04/21 10:00:43;;;;;;;1.73;1.63;;;;;;;15.15;56.08;101601.59;5054726;28;22193;-67
2022/04/21 10:03:10;;;;;;;2.60;1.77;;;;;;;15.13;56.40;101596.34;5055414;28;20749;-67
2022/04/21 10:05:36;;;;;;;1.90;1.70;;;;;;;15.08;54.80;101603.72;5054212;28;20563;-68
2022/04/21 10:08:04;;;;;;;2.05;1.50;;;;;;;15.02;55.12;101594.25;5052936;28;21940;-68
2022/04/21 10:10:31;;;;;;;3.30;1.67;;;;;;;14.96;55.00;101596.34;5055326;28;20117;-68
2022/04/21 10:12:59;;;;;;;1.90;1.67;;;;;;;14.90;55.72;101587.75;5054816;28;20078;-67
2022/04/21 10:15:26;;;;;;;1.92;1.63;;;;;;;14.87;55.35;101579.06;5044505;28;20040;-67
2022/04/21 10:17:52;;;;;;;2.88;2.10;;;;;;;14.88;55.61;101575.44;5044578;28;20020;-67
2022/04/21 10:20:22;;;;;;;2.30;1.75;;;;;;;14.82;54.18;101586.41;5048575;28;20059;-68
2022/04/21 10:22:49;;;;;;;1.88;1.77;;;;;;;14.74;55.32;101579.69;5042973;28;20035;-68
2022/04/21 10:25:14;;;;;;;1.92;1.70;;;;;;;14.67;55.26;101572.91;5071008;28;20090;-68
2022/04/21 10:27:46;;;;;;;2.38;1.80;;;;;;;14.58;55.78;101584.91;5060151;28;20028;-68
2022/04/21 10:30:30;;;;;;;2.90;2.00;;;;;;;14.50;55.34;101576.44;5033582;28;20028;-68
2022/04/21 10:32:59;;;;;;;2.35;1.83;;;;;;;14.47;56.38;101572.13;5054565;28;20040;-69
2022/04/21 10:35:26;;;;;;;2.17;1.70;;;;;;;14.39;55.86;101574.31;5028743;28;20044;-68
2022/04/21 10:38:13;;;;;;;3.13;1.75;;;;;;;14.35;54.87;101560.28;5052305;28;20114;-71
2022/04/21 10:41:03;;;;;;;2.05;1.70;;;;;;;14.27;56.14;101575.75;5054962;28;20040;-68
2022/04/21 10:43:48;;;;;;;4.18;1.92;;;;;;;14.23;55.03;101559.06;5051544;28;20033;-69
2022/04/21 10:46:21;;;;;;;2.60;1.80;;;;;;;14.23;55.27;101559.06;5053005;28;20096;-69
2022/04/21 10:48:47;;;;;;;2.95;1.90;;;;;;;14.23;56.15;101547.56;5041789;28;20025;-68
2022/04/21 10:51:12;;;;;;;2.45;1.73;;;;;;;14.28;55.74;101558.00;5052757;28;20059;-68
2022/04/21 10:59:29;;;;;;;2.85;1.80;;;;;;;14.22;56.76;101544.03;5053762;28;20040;-68
2022/04/21 11:01:55;;;;;;;2.05;1.70;;;;;;;14.26;55.37;101550.94;5054914;28;20058;-69
2022/04/21 11:04:22;;;;;;;2.42;1.65;;;;;;;14.23;55.10;101543.09;5052898;28;20750;-68
2022/04/21 11:06:54;;;;;;;2.05;1.45;;;;;;;14.22;54.80;101540.53;5053891;28;20036;-68
2022/04/21 11:09:39;;;;;;;2.17;1.80;;;;;;;14.31;55.67;101533.84;5049937;28;20119;-69
2022/04/21 11:12:07;;;;;;;2.42;1.95;;;;;;;14.38;56.75;101537.94;5039650;28;20580;-68
2022/04/21 11:14:36;;;;;;;2.70;1.80;;;;;;;14.48;56.55;101531.22;5042904;28;20132;-68
2022/04/21 11:17:07;;;;;;;2.40;1.92;;;;;;;14.54;55.53;101530.03;5050683;28;20033;-68
2022/04/21 11:19:40;;;;;;;2.63;2.00;;;;;;;14.59;56.23;101522.66;5060001;28;20773;-68
2022/04/21 11:22:08;;;;;;;2.55;2.00;;;;;;;14.61;56.50;101522.59;5057926;28;20040;-67
2022/04/21 11:25:09;;;;;;;2.50;1.98;;;;;;;14.40;53.95;101520.09;5052303;28;20040;-67
2022/04/21 11:27:41;;;;;;;1.80;1.67;;;;;;;14.26;55.73;101515.44;4971297;28;20041;-67
2022/04/21 11:30:12;;;;;;;3.10;2.45;;;;;;;14.32;56.11;101520.47;5040351;28;20048;-67
2022/04/21 11:32:38;;;;;;;3.28;2.08;;;;;;;14.35;55.96;101519.47;5053706;28;20565;-68
2022/04/21 11:35:09;;;;;;;2.15;1.85;;;;;;;14.40;55.82;101506.78;5059020;28;20032;-67
2022/04/21 11:37:55;;;;;;;2.45;1.80;;;;;;;14.42;54.88;101510.22;5048770;28;20760;-68
2022/04/21 11:40:28;;;;;;;3.30;2.10;;;;;;;14.36;54.94;101500.75;5053369;28;20056;-68
2022/04/21 11:42:54;;;;;;;;;;;;;;;14.40;56.07;101506.78;5065523;28;20060;-68
2022/04/21 11:45:25;;;;;;;3.00;2.00;;;;;;;14.51;55.26;101503.56;5052889;28;20005;-68
2022/04/21 11:47:51;;;;;;;2.40;2.20;;;;;;;14.61;55.74;101498.63;5024593;28;20040;-68
2022/04/21 11:50:18;;;;;;;1.85;1.65;;;;;;;14.70;55.61;101492.78;5041855;28;20295;-68
2022/04/21 11:52:46;;;;;;;2.17;1.80;;;;;;;14.70;55.59;101489.28;5052599;28;20127;-69
2022/04/21 11:55:14;;;;;;;4.70;1.50;;;;;;;14.63;55.47;101496.72;5058983;28;20044;-68
2022/04/21 11:57:40;;;;;;;2.28;2.03;;;;;;;14.62;55.73;101505.66;5041680;28;20024;-68
2022/04/21 12:00:06;;;;;;;2.28;1.58;;;;;;;14.56;54.37;101495.31;5065745;28;20032;-70
2022/04/21 12:08:00;;;;;;;3.42;1.88;;;;;;;14.62;54.67;101500.34;5053168;28;20074;-68
2022/04/21 12:10:26;;;;;;;1.75;1.65;;;;;;;14.70;54.81;101487.47;5053909;28;20547;-69
2022/04/21 12:12:52;;;;;;;1.83;1.50;;;;;;;14.76;53.75;101492.50;5052676;28;20032;-67
2022/04/21 12:15:39;;;;;;;1.73;1.63;;;;;;;14.76;53.61;101492.50;5059674;28;20044;-69